createdAt,value
2019-05-25T00:04:12.582Z,36.42
2019-05-25T00:09:15.919Z,30.70
2019-05-25T00:14:18.962Z,38.25
2019-05-25T00:19:22.048Z,34.67
2019-05-25T00:24:25.400Z,27.70
2019-05-25T00:29:28.627Z,33.65
2019-05-25T00:34:31.968Z,29.60
2019-05-25T00:39:35.147Z,31.97
2019-05-25T00:44:38.485Z,26.07
2019-05-25T00:49:41.577Z,26.17
2019-05-25T00:54:44.680Z,24.47
2019-05-25T00:59:47.743Z,30.27
2019-05-25T01:04:51.008Z,28.35
2019-05-25T01:09:53.983Z,27.85
2019-05-25T01:14:57.071Z,32.08
2019-05-25T01:20:00.366Z,33.48
2019-05-25T01:25:04.249Z,31.65
2019-05-25T01:30:09.077Z,31.77
2019-05-25T01:35:12.056Z,31.90
2019-05-25T01:40:15.993Z,30.45
2019-05-25T01:45:19.148Z,29.87
2019-05-25T01:50:22.352Z,32.48
2019-05-25T01:55:25.469Z,32.65
2019-05-25T02:00:28.566Z,28.70
2019-05-25T02:05:31.789Z,29.95
2019-05-25T02:10:35.001Z,28.90
2019-05-25T02:15:38.102Z,31.60
2019-05-25T02:20:41.125Z,32.33
2019-05-25T02:25:44.325Z,33.33
2019-05-25T02:30:47.534Z,32.60
2019-05-25T02:35:50.510Z,31.97
2019-05-25T02:40:53.693Z,29.45
2019-05-25T02:45:56.763Z,29.52
2019-05-25T02:50:59.861Z,28.83
2019-05-25T02:56:03.540Z,25.57
2019-05-25T03:01:07.121Z,26.65
2019-05-25T03:06:10.481Z,26.23
2019-05-25T03:11:14.184Z,26.42
2019-05-25T03:16:17.415Z,23.87
2019-05-25T03:21:20.661Z,27.52
2019-05-25T03:26:23.770Z,30.50
2019-05-25T03:31:26.821Z,29.32
2019-05-25T03:36:29.997Z,28.95
2019-05-25T03:41:33.005Z,33.00
2019-05-25T03:46:36.312Z,27.42
2019-05-25T03:51:39.416Z,29.60
2019-05-25T03:56:42.883Z,30.62
2019-05-25T04:01:46.349Z,33.05
2019-05-25T04:06:49.278Z,29.32
2019-05-25T04:11:52.632Z,29.37
2019-05-25T04:16:55.698Z,29.40
2019-05-25T04:21:58.660Z,31.55
2019-05-25T04:27:01.802Z,30.17
2019-05-25T04:32:05.162Z,30.02
2019-05-25T04:37:08.315Z,31.55
2019-05-25T04:42:11.385Z,30.37
2019-05-25T04:47:26.668Z,29.90
2019-05-25T04:52:19.859Z,26.73
2019-05-25T04:57:22.993Z,31.00
2019-05-25T05:02:26.262Z,25.17
2019-05-25T05:07:29.225Z,27.25
2019-05-25T05:12:32.320Z,29.20
2019-05-25T05:17:35.650Z,25.77
2019-05-25T05:22:38.925Z,25.45
2019-05-25T05:27:42.055Z,22.77
2019-05-25T05:32:45.282Z,23.50
2019-05-25T05:37:48.593Z,26.27
2019-05-25T05:42:54.318Z,26.42
2019-05-25T05:48:00.363Z,24.23
2019-05-25T05:53:03.644Z,28.62
2019-05-25T05:58:07.731Z,27.22
2019-05-25T06:03:11.295Z,28.08
2019-05-25T06:08:14.500Z,25.37
2019-05-25T06:13:17.614Z,26.53
2019-05-25T06:18:20.713Z,24.82
2019-05-25T06:23:24.126Z,25.10
2019-05-25T06:28:27.254Z,24.57
2019-05-25T06:33:30.236Z,26.50
2019-05-25T06:38:33.550Z,28.75
2019-05-25T06:43:36.718Z,25.35
2019-05-25T06:48:39.886Z,24.40
2019-05-25T06:53:43.080Z,21.60
2019-05-25T06:58:46.129Z,21.42
2019-05-25T07:03:49.098Z,19.82
2019-05-25T07:08:52.190Z,18.77
2019-05-25T07:13:55.324Z,24.37
2019-05-25T07:18:58.740Z,20.27
2019-05-25T07:24:03.198Z,19.85
2019-05-25T07:29:06.660Z,17.20
2019-05-25T07:34:09.682Z,19.52
2019-05-25T07:39:13.314Z,17.82
2019-05-25T07:44:16.426Z,16.52
2019-05-25T07:49:19.653Z,17.42
2019-05-25T07:54:22.640Z,25.65
2019-05-25T07:59:25.770Z,12.63
2019-05-25T08:04:29.080Z,10.98
2019-05-25T08:09:32.043Z,12.47
2019-05-25T08:14:35.123Z,13.93
2019-05-25T08:19:38.205Z,10.75
2019-05-25T08:24:41.264Z,14.28
2019-05-25T08:29:44.394Z,11.15
2019-05-25T08:34:48.355Z,9.28
2019-05-25T08:39:51.360Z,9.83
2019-05-25T08:44:54.428Z,7.40
2019-05-25T08:49:57.965Z,7.65
2019-05-25T08:55:00.983Z,9.33
2019-05-25T09:00:05.999Z,6.43
2019-05-25T09:05:09.762Z,9.00
2019-05-25T09:10:13.167Z,10.63
2019-05-25T09:15:17.535Z,5.83
2019-05-25T09:20:20.661Z,7.22
2019-05-25T09:25:23.943Z,9.80
2019-05-25T09:30:27.139Z,6.90
2019-05-25T09:35:30.331Z,6.67
2019-05-25T09:40:33.515Z,7.55
2019-05-25T09:45:36.863Z,7.40
2019-05-25T09:50:40.245Z,5.95
2019-05-25T09:55:43.342Z,7.53
2019-05-25T10:00:46.344Z,4.62
2019-05-25T10:05:50.727Z,6.70
2019-05-25T10:10:53.886Z,6.08
2019-05-25T10:15:57.046Z,5.42
2019-05-25T10:21:00.226Z,5.28
2019-05-25T10:26:03.467Z,6.83
2019-05-25T10:31:06.741Z,6.45
2019-05-25T10:36:09.854Z,4.67
2019-05-25T10:41:13.110Z,6.72
2019-05-25T10:46:16.212Z,6.20
2019-05-25T10:51:19.446Z,7.72
2019-05-25T10:56:22.621Z,9.58
2019-05-25T11:01:25.718Z,5.20
2019-05-25T11:06:29.156Z,7.37
2019-05-25T11:11:32.297Z,6.92
2019-05-25T11:16:35.485Z,4.92
2019-05-25T11:21:38.772Z,5.90
2019-05-25T11:26:41.820Z,5.05
2019-05-25T11:31:54.618Z,7.22
2019-05-25T11:36:50.245Z,4.20
2019-05-25T11:41:53.373Z,11.57
2019-05-25T11:46:56.684Z,7.37
2019-05-25T11:52:00.211Z,7.47
2019-05-25T11:57:03.421Z,5.95
2019-05-25T12:02:06.653Z,9.13
2019-05-25T12:07:09.718Z,6.60
2019-05-25T12:12:13.203Z,6.10
2019-05-25T12:17:16.223Z,6.60
2019-05-25T12:22:19.356Z,4.90
2019-05-25T12:27:22.478Z,5.03
2019-05-25T12:32:25.716Z,5.28
2019-05-25T12:37:29.000Z,8.38
2019-05-25T12:42:32.098Z,4.37
2019-05-25T12:47:35.177Z,7.60
2019-05-25T12:52:38.575Z,4.97
2019-05-25T12:57:41.658Z,5.28
2019-05-25T13:02:46.195Z,7.97
2019-05-25T13:07:49.366Z,4.70
2019-05-25T13:12:53.443Z,4.83
2019-05-25T13:17:56.483Z,3.90
2019-05-25T13:22:59.536Z,6.20
2019-05-25T13:28:02.534Z,4.00
2019-05-25T13:33:05.680Z,3.87
2019-05-25T13:38:10.799Z,3.62
2019-05-25T13:43:13.934Z,4.17
2019-05-25T13:48:17.317Z,7.30
2019-05-25T13:53:20.546Z,4.97
2019-05-25T13:58:23.789Z,5.87
2019-05-25T14:03:26.877Z,6.85
2019-05-25T14:08:29.984Z,4.40
2019-05-25T14:13:33.093Z,4.85
2019-05-25T14:18:36.288Z,6.10
2019-05-25T14:23:39.411Z,5.85
2019-05-25T14:28:42.576Z,3.85
2019-05-25T14:33:45.661Z,4.22
2019-05-25T14:38:48.632Z,4.93
2019-05-25T14:43:51.610Z,5.83
2019-05-25T14:48:54.576Z,4.40
2019-05-25T14:53:57.581Z,8.28
2019-05-25T14:59:00.657Z,7.85
2019-05-25T15:04:03.785Z,6.83
2019-05-25T15:09:07.068Z,4.58
2019-05-25T15:14:10.000Z,7.97
2019-05-25T15:19:13.083Z,4.25
2019-05-25T15:24:16.170Z,6.92
2019-05-25T15:29:19.223Z,4.50
2019-05-25T15:34:22.225Z,4.95
2019-05-25T15:39:25.242Z,5.62
2019-05-25T15:44:28.181Z,8.38
2019-05-25T15:49:33.664Z,7.20
2019-05-25T15:54:35.999Z,5.10
2019-05-25T15:59:39.054Z,7.00
2019-05-25T16:04:42.184Z,6.87
2019-05-25T16:09:45.218Z,5.72
2019-05-25T16:14:48.199Z,6.05
2019-05-25T16:19:51.315Z,4.65
2019-05-25T16:24:54.390Z,7.92
2019-05-25T16:29:57.710Z,5.33
2019-05-25T16:35:00.737Z,5.20
2019-05-25T16:40:04.034Z,4.20
2019-05-25T16:45:07.597Z,8.03
2019-05-25T16:50:14.952Z,7.35
2019-05-25T16:55:17.929Z,7.60
2019-05-25T17:00:30.015Z,8.23
2019-05-25T17:05:32.956Z,6.30
2019-05-25T17:10:36.029Z,9.93
2019-05-25T17:15:39.140Z,10.00
2019-05-25T17:20:42.102Z,6.47
2019-05-25T17:25:45.071Z,7.62
2019-05-25T17:30:48.165Z,7.53
2019-05-25T17:35:51.402Z,8.53
2019-05-25T17:40:54.386Z,7.55
2019-05-25T17:45:57.390Z,8.50
2019-05-25T17:51:00.398Z,9.05
2019-05-25T17:56:03.723Z,19.00
2019-05-25T18:01:06.673Z,7.40
2019-05-25T18:06:09.668Z,9.75
2019-05-25T18:11:12.612Z,11.08
2019-05-25T18:16:15.618Z,14.05
2019-05-25T18:21:18.697Z,15.45
2019-05-25T18:26:21.674Z,41.55
2019-05-25T18:31:25.012Z,72.67
2019-05-25T18:36:27.974Z,46.45
2019-05-25T18:41:31.056Z,28.92
2019-05-25T18:46:34.096Z,23.80
2019-05-25T18:51:37.192Z,15.55
2019-05-25T18:56:40.287Z,11.80
2019-05-25T19:01:43.625Z,12.10
2019-05-25T19:06:46.725Z,14.20
2019-05-25T19:11:49.875Z,7.80
2019-05-25T19:16:52.977Z,13.43
2019-05-25T19:21:56.111Z,16.80
2019-05-25T19:26:59.382Z,11.25
2019-05-25T19:32:02.479Z,14.80
2019-05-25T19:37:05.452Z,14.03
2019-05-25T19:42:08.825Z,20.10
2019-05-25T19:47:11.798Z,14.63
2019-05-25T19:52:14.967Z,21.95
2019-05-25T19:57:18.092Z,13.48
2019-05-25T20:02:21.246Z,21.45
2019-05-25T20:07:24.678Z,15.85
2019-05-25T20:12:28.072Z,18.32
2019-05-25T20:17:31.406Z,16.23
2019-05-25T20:22:34.658Z,20.70
2019-05-25T20:27:37.754Z,21.53
2019-05-25T20:32:40.887Z,18.10
2019-05-25T20:37:44.336Z,20.68
2019-05-25T20:42:47.806Z,22.17
2019-05-25T20:47:51.082Z,25.80
2019-05-25T20:52:54.521Z,21.27
2019-05-25T20:57:57.690Z,19.07
2019-05-25T21:03:06.321Z,26.43
2019-05-25T21:08:06.050Z,22.37
2019-05-25T21:13:09.393Z,25.47
2019-05-25T21:18:12.625Z,21.40
2019-05-25T21:23:15.740Z,24.95
2019-05-25T21:28:18.863Z,26.95
2019-05-25T21:33:21.959Z,26.65
2019-05-25T21:38:24.985Z,29.40
2019-05-25T21:43:28.052Z,27.45
2019-05-25T21:48:31.111Z,29.87
2019-05-25T21:53:34.174Z,24.60
2019-05-25T21:58:37.368Z,23.27
2019-05-25T22:03:40.456Z,25.05
2019-05-25T22:08:43.443Z,26.85
2019-05-25T22:13:47.010Z,31.25
2019-05-25T22:18:50.268Z,30.00
2019-05-25T22:23:53.461Z,30.60
2019-05-25T22:28:56.595Z,31.60
2019-05-25T22:33:59.909Z,26.35
2019-05-25T22:39:03.917Z,29.72
2019-05-25T22:44:07.021Z,28.65
2019-05-25T22:49:10.119Z,26.90
2019-05-25T22:54:13.255Z,23.85
2019-05-25T22:59:16.560Z,27.98
2019-05-25T23:04:19.630Z,25.32
2019-05-25T23:09:22.749Z,28.80
2019-05-25T23:14:26.177Z,24.65
2019-05-25T23:19:29.249Z,26.35
2019-05-25T23:24:32.378Z,27.20
2019-05-25T23:29:35.515Z,28.75
2019-05-25T23:34:38.576Z,30.35
2019-05-25T23:39:41.722Z,27.02
2019-05-25T23:44:44.822Z,29.07
2019-05-25T23:49:47.912Z,28.77
2019-05-25T23:54:50.915Z,30.08
2019-05-25T23:59:53.976Z,38.17
